createdAt,value
2018-05-31T00:00:55.378Z,23.15
2018-05-31T00:02:48.722Z,23.04
2018-05-31T00:03:48.614Z,22.99
2018-05-31T00:05:41.917Z,22.97
2018-05-31T00:06:41.842Z,22.96
2018-05-31T00:08:35.150Z,22.84
2018-05-31T00:09:35.075Z,22.76
2018-05-31T00:11:28.386Z,22.70
2018-05-31T00:12:28.311Z,22.75
2018-05-31T00:14:21.600Z,22.70
2018-05-31T00:15:21.543Z,22.61
2018-05-31T00:17:14.850Z,22.49
2018-05-31T00:18:14.775Z,22.48
2018-05-31T00:20:08.060Z,22.52
2018-05-31T00:21:08.004Z,22.48
2018-05-31T00:23:01.313Z,22.45
2018-05-31T00:24:01.236Z,22.51
2018-05-31T00:25:54.644Z,22.41
2018-05-31T00:26:54.467Z,22.44
2018-05-31T00:28:47.762Z,22.41
2018-05-31T00:29:47.686Z,22.46
2018-05-31T00:31:41.093Z,22.48
2018-05-31T00:32:40.917Z,22.52
2018-05-31T00:34:34.205Z,22.46
2018-05-31T00:35:34.149Z,22.46
2018-05-31T00:37:27.446Z,22.49
2018-05-31T00:38:27.371Z,22.48
2018-05-31T00:40:20.658Z,22.54
2018-05-31T00:41:20.603Z,22.45
2018-05-31T00:43:13.907Z,22.49
2018-05-31T00:44:13.831Z,22.46
2018-05-31T00:46:07.252Z,22.36
2018-05-31T00:47:07.063Z,22.44
2018-05-31T00:49:00.343Z,22.46
2018-05-31T00:50:00.283Z,22.52
2018-05-31T00:51:53.590Z,22.63
2018-05-31T00:52:53.515Z,22.54
2018-05-31T00:54:46.803Z,22.55
2018-05-31T00:55:46.744Z,22.42
2018-05-31T00:57:40.045Z,22.34
2018-05-31T00:58:39.967Z,22.26
2018-05-31T01:00:33.363Z,22.24
2018-05-31T01:01:33.217Z,22.24
2018-05-31T01:03:26.523Z,22.27
2018-05-31T01:04:26.445Z,22.18
2018-05-31T01:06:19.760Z,22.23
2018-05-31T01:07:19.674Z,22.27
2018-05-31T01:09:12.962Z,22.26
2018-05-31T01:10:12.902Z,22.24
2018-05-31T01:12:06.212Z,22.31
2018-05-31T01:13:06.135Z,22.27
2018-05-31T01:14:59.424Z,22.27
2018-05-31T01:15:59.367Z,22.24
2018-05-31T01:17:52.664Z,22.27
2018-05-31T01:18:52.590Z,22.30
2018-05-31T01:20:45.875Z,22.24
2018-05-31T01:21:45.819Z,22.27
2018-05-31T01:23:39.126Z,22.24
2018-05-31T01:24:39.056Z,22.26
2018-05-31T01:26:32.357Z,22.18
2018-05-31T01:27:32.283Z,22.27
2018-05-31T01:29:25.577Z,22.22
2018-05-31T01:30:25.512Z,22.22
2018-05-31T01:32:18.819Z,22.23
2018-05-31T01:33:18.742Z,22.18
2018-05-31T01:35:12.030Z,22.23
2018-05-31T01:36:11.972Z,22.18
2018-05-31T01:38:05.270Z,22.20
2018-05-31T01:39:05.193Z,22.15
2018-05-31T01:40:58.583Z,22.16
2018-05-31T01:41:58.427Z,22.08
2018-05-31T01:43:51.735Z,22.04
2018-05-31T01:44:51.655Z,22.05
2018-05-31T01:46:44.963Z,22.05
2018-05-31T01:47:44.886Z,22.08
2018-05-31T01:49:38.173Z,22.07
2018-05-31T01:50:38.115Z,22.08
2018-05-31T01:52:31.421Z,22.11
2018-05-31T01:53:31.344Z,22.04
2018-05-31T01:55:24.632Z,22.11
2018-05-31T01:56:24.577Z,22.08
2018-05-31T01:58:17.983Z,21.97
2018-05-31T01:59:17.798Z,22.02
2018-05-31T02:01:11.083Z,21.94
2018-05-31T02:02:11.027Z,21.86
2018-05-31T02:04:04.351Z,21.86
2018-05-31T02:05:04.275Z,21.73
2018-05-31T02:06:57.580Z,21.77
2018-05-31T02:07:57.503Z,21.76
2018-05-31T02:09:50.790Z,21.76
2018-05-31T02:10:50.732Z,21.76
2018-05-31T02:12:44.041Z,21.76
2018-05-31T02:13:43.959Z,21.77
2018-05-31T02:15:37.249Z,21.73
2018-05-31T02:16:37.192Z,21.71
2018-05-31T02:18:30.499Z,21.62
2018-05-31T02:19:30.422Z,21.66
2018-05-31T02:21:23.713Z,21.53
2018-05-31T02:22:23.653Z,21.58
2018-05-31T02:24:16.959Z,21.53
2018-05-31T02:25:16.880Z,21.56
2018-05-31T02:27:10.185Z,21.46
2018-05-31T02:28:10.111Z,21.34
2018-05-31T02:30:03.395Z,21.27
2018-05-31T02:31:03.340Z,21.18
2018-05-31T02:32:56.643Z,21.15
2018-05-31T02:33:56.566Z,21.16
2018-05-31T02:35:49.952Z,21.13
2018-05-31T02:36:49.795Z,21.13
2018-05-31T02:38:43.096Z,21.12
2018-05-31T02:39:43.019Z,21.18
2018-05-31T02:41:36.332Z,21.21
2018-05-31T02:42:36.269Z,21.19
2018-05-31T02:44:29.575Z,21.15
2018-05-31T02:45:29.497Z,21.21
2018-05-31T02:47:22.795Z,21.25
2018-05-31T02:48:22.716Z,21.23
2018-05-31T02:50:16.001Z,21.22
2018-05-31T02:51:15.945Z,21.25
2018-05-31T02:53:09.247Z,21.31
2018-05-31T02:54:09.170Z,21.33
2018-05-31T02:56:02.455Z,21.23
2018-05-31T02:57:02.397Z,21.27
2018-05-31T02:58:55.703Z,21.28
2018-05-31T02:59:55.624Z,21.28
2018-05-31T03:01:48.905Z,21.30
2018-05-31T03:02:48.860Z,21.25
2018-05-31T03:04:42.157Z,21.33
2018-05-31T03:05:42.078Z,21.31
2018-05-31T03:07:35.379Z,21.33
2018-05-31T03:08:35.296Z,21.27
2018-05-31T03:10:28.582Z,21.37
2018-05-31T03:11:28.523Z,21.34
2018-05-31T03:13:21.828Z,21.28
2018-05-31T03:14:21.753Z,21.31
2018-05-31T03:16:15.037Z,21.31
2018-05-31T03:17:14.978Z,21.31
2018-05-31T03:19:08.386Z,21.28
2018-05-31T03:20:08.273Z,21.28
2018-05-31T03:22:01.558Z,21.21
2018-05-31T03:23:01.506Z,21.16
2018-05-31T03:24:54.805Z,21.19
2018-05-31T03:25:54.727Z,21.15
2018-05-31T03:27:48.023Z,21.19
2018-05-31T03:28:47.946Z,21.19
2018-05-31T03:30:41.231Z,21.16
2018-05-31T03:31:41.175Z,21.22
2018-05-31T03:33:35.082Z,21.22
2018-05-31T03:34:34.402Z,21.18
2018-05-31T03:36:27.790Z,21.15
2018-05-31T03:37:27.626Z,21.21
2018-05-31T03:39:20.933Z,21.15
2018-05-31T03:40:20.857Z,21.18
2018-05-31T03:42:14.140Z,21.13
2018-05-31T03:43:14.083Z,21.09
2018-05-31T03:45:07.387Z,21.15
2018-05-31T03:46:07.310Z,21.09
2018-05-31T03:48:00.607Z,21.04
2018-05-31T03:49:00.528Z,21.00
2018-05-31T03:50:53.916Z,21.03
2018-05-31T03:51:53.752Z,21.08
2018-05-31T03:53:47.062Z,21.09
2018-05-31T03:54:46.984Z,21.09
2018-05-31T03:56:40.333Z,21.18
2018-05-31T03:57:40.272Z,21.16
2018-05-31T03:59:33.586Z,21.21
2018-05-31T04:00:33.506Z,21.25
2018-05-31T04:02:26.893Z,21.18
2018-05-31T04:03:26.733Z,21.27
2018-05-31T04:05:20.140Z,21.27
2018-05-31T04:06:19.960Z,21.28
2018-05-31T04:08:13.258Z,21.27
2018-05-31T04:09:13.179Z,21.33
2018-05-31T04:11:06.465Z,21.33
2018-05-31T04:12:06.410Z,21.30
2018-05-31T04:13:59.715Z,21.28
2018-05-31T04:14:59.637Z,21.37
2018-05-31T04:16:53.026Z,21.38
2018-05-31T04:17:52.865Z,21.38
2018-05-31T04:19:46.170Z,21.41
2018-05-31T04:20:46.093Z,21.59
2018-05-31T04:22:39.481Z,21.62
2018-05-31T04:23:39.321Z,21.59
2018-05-31T04:25:32.628Z,21.74
2018-05-31T04:26:32.551Z,21.66
2018-05-31T04:28:25.864Z,21.70
2018-05-31T04:29:25.781Z,21.74
2018-05-31T04:31:19.171Z,21.73
2018-05-31T04:32:19.010Z,21.77
2018-05-31T04:34:12.353Z,21.74
2018-05-31T04:35:12.275Z,21.78
2018-05-31T04:37:05.565Z,21.80
2018-05-31T04:38:05.510Z,21.78
2018-05-31T04:39:58.815Z,21.90
2018-05-31T04:40:58.744Z,21.90
2018-05-31T04:42:52.026Z,21.86
2018-05-31T04:43:51.969Z,22.00
2018-05-31T04:45:45.279Z,21.89
2018-05-31T04:46:45.200Z,21.86
2018-05-31T04:48:38.514Z,22.11
2018-05-31T04:49:38.432Z,22.05
2018-05-31T04:51:31.722Z,22.11
2018-05-31T04:52:31.665Z,22.15
2018-05-31T04:54:25.078Z,22.08
2018-05-31T04:55:24.895Z,22.07
2018-05-31T04:57:18.283Z,22.18
2018-05-31T04:58:18.118Z,22.16
2018-05-31T05:00:11.428Z,22.23
2018-05-31T05:01:11.351Z,22.14
2018-05-31T05:03:04.655Z,22.14
2018-05-31T05:04:04.586Z,22.07
2018-05-31T05:05:57.994Z,22.18
2018-05-31T05:06:57.814Z,22.26
2018-05-31T05:08:51.124Z,22.24
2018-05-31T05:09:51.047Z,22.24
2018-05-31T05:11:44.338Z,22.48
2018-05-31T05:12:44.279Z,22.48
2018-05-31T05:14:37.589Z,22.52
2018-05-31T05:15:37.511Z,22.63
2018-05-31T05:17:30.796Z,22.86
2018-05-31T05:18:30.740Z,22.85
2018-05-31T05:20:24.146Z,22.97
2018-05-31T05:21:23.979Z,22.89
2018-05-31T05:23:17.362Z,23.01
2018-05-31T05:24:17.205Z,23.04
2018-05-31T05:26:10.620Z,23.34
2018-05-31T05:27:10.443Z,23.52
2018-05-31T05:29:03.756Z,23.71
2018-05-31T05:30:03.677Z,23.78
2018-05-31T05:31:57.069Z,23.89
2018-05-31T05:32:56.919Z,23.75
2018-05-31T05:34:50.225Z,23.78
2018-05-31T05:35:50.154Z,23.94
2018-05-31T05:37:43.436Z,23.84
2018-05-31T05:38:43.381Z,23.90
2018-05-31T05:40:36.793Z,23.94
2018-05-31T05:41:36.620Z,23.96
2018-05-31T05:43:29.919Z,23.96
2018-05-31T05:44:29.858Z,24.07
2018-05-31T05:46:23.170Z,24.14
2018-05-31T05:47:23.095Z,24.18
2018-05-31T05:49:16.406Z,24.17
2018-05-31T05:50:16.410Z,24.18
2018-05-31T05:52:09.729Z,24.12
2018-05-31T05:53:09.574Z,24.09
2018-05-31T05:55:03.037Z,24.15
2018-05-31T05:56:02.814Z,24.21
2018-05-31T05:57:56.098Z,24.30
2018-05-31T05:58:56.044Z,24.19
2018-05-31T06:00:49.457Z,24.33
2018-05-31T06:01:49.309Z,24.45
2018-05-31T06:03:42.577Z,24.33
2018-05-31T06:04:42.523Z,24.36
2018-05-31T06:06:35.933Z,24.48
2018-05-31T06:07:35.763Z,24.56
2018-05-31T06:09:29.075Z,24.63
2018-05-31T06:10:29.004Z,24.78
2018-05-31T06:12:22.336Z,24.85
2018-05-31T06:13:22.281Z,25.01
2018-05-31T06:15:15.596Z,25.22
2018-05-31T06:16:15.523Z,25.24
2018-05-31T06:18:08.809Z,25.78
2018-05-31T06:19:08.756Z,26.03
2018-05-31T06:21:02.170Z,26.07
2018-05-31T06:22:02.002Z,26.44
2018-05-31T06:23:55.395Z,26.86
2018-05-31T06:24:55.250Z,26.97
2018-05-31T06:26:48.574Z,27.43
2018-05-31T06:27:48.501Z,27.51
2018-05-31T06:29:41.830Z,27.36
2018-05-31T06:30:41.763Z,27.23
2018-05-31T06:32:35.070Z,27.12
2018-05-31T06:33:35.037Z,27.53
2018-05-31T06:35:28.441Z,27.96
2018-05-31T06:36:28.289Z,27.48
2018-05-31T06:38:21.599Z,27.46
2018-05-31T06:39:21.549Z,27.72
2018-05-31T06:41:14.873Z,28.38
2018-05-31T06:42:14.808Z,28.38
2018-05-31T06:44:08.118Z,28.58
2018-05-31T06:45:08.071Z,28.48
2018-05-31T06:47:01.399Z,28.33
2018-05-31T06:48:01.332Z,28.23
2018-05-31T06:49:54.661Z,28.23
2018-05-31T06:50:54.594Z,28.35
2018-05-31T06:52:47.902Z,28.64
2018-05-31T06:53:47.855Z,28.63
2018-05-31T06:55:41.277Z,29.10
2018-05-31T06:56:41.117Z,29.03
2018-05-31T06:58:34.429Z,28.92
2018-05-31T06:59:34.390Z,29.13
2018-05-31T07:01:27.711Z,29.03
2018-05-31T07:02:27.648Z,28.55
2018-05-31T07:04:20.956Z,28.36
2018-05-31T07:05:20.911Z,28.46
2018-05-31T07:07:14.336Z,29.17
2018-05-31T07:08:14.177Z,29.32
2018-05-31T07:10:07.509Z,29.18
2018-05-31T07:11:07.441Z,28.85
2018-05-31T07:13:00.754Z,28.21
2018-05-31T07:14:00.708Z,28.35
2018-05-31T07:15:54.160Z,28.36
2018-05-31T07:16:53.973Z,28.23
2018-05-31T07:18:47.284Z,28.58
2018-05-31T07:19:47.237Z,28.49
2018-05-31T07:21:40.605Z,29.14
2018-05-31T07:22:40.502Z,29.30
2018-05-31T07:24:33.814Z,29.75
2018-05-31T07:25:33.768Z,29.72
2018-05-31T07:27:27.098Z,29.17
2018-05-31T07:28:27.033Z,29.18
2018-05-31T07:30:20.371Z,29.55
2018-05-31T07:31:20.302Z,29.57
2018-05-31T07:33:13.613Z,29.98
2018-05-31T07:34:13.567Z,29.69
2018-05-31T07:36:06.899Z,29.40
2018-05-31T07:37:06.841Z,29.14
2018-05-31T07:39:00.154Z,28.68
2018-05-31T07:40:00.100Z,28.60
2018-05-31T07:41:53.524Z,29.14
2018-05-31T07:42:53.367Z,29.20
2018-05-31T07:44:46.678Z,29.14
2018-05-31T07:45:46.638Z,28.78
2018-05-31T07:47:39.966Z,29.17
2018-05-31T07:48:39.901Z,29.55
2018-05-31T07:50:33.230Z,29.72
2018-05-31T07:51:33.168Z,29.61
2018-05-31T07:53:26.479Z,29.79
2018-05-31T07:54:26.434Z,29.69
2018-05-31T07:56:19.859Z,29.57
2018-05-31T07:57:19.700Z,29.47
2018-05-31T07:59:13.011Z,29.33
2018-05-31T08:00:12.966Z,29.23
2018-05-31T08:02:06.361Z,28.49
2018-05-31T08:03:06.294Z,28.48
2018-05-31T08:04:59.606Z,28.36
2018-05-31T08:05:59.594Z,28.43
2018-05-31T08:07:52.875Z,28.33
2018-05-31T08:08:52.807Z,28.43
2018-05-31T08:10:46.133Z,28.60
2018-05-31T08:11:46.066Z,28.79
2018-05-31T08:13:39.468Z,29.26
2018-05-31T08:14:39.325Z,29.55
2018-05-31T08:16:33.249Z,29.21
2018-05-31T08:17:32.587Z,29.35
2018-05-31T08:19:25.888Z,29.39
2018-05-31T08:20:25.843Z,29.43
2018-05-31T08:22:19.166Z,29.33
2018-05-31T08:23:19.100Z,29.58
2018-05-31T08:25:12.405Z,29.98
2018-05-31T08:26:12.357Z,29.87
2018-05-31T08:28:05.674Z,29.92
2018-05-31T08:29:05.606Z,29.88
2018-05-31T08:30:58.931Z,29.66
2018-05-31T08:31:58.865Z,29.94
2018-05-31T08:33:52.168Z,30.39
2018-05-31T08:34:52.120Z,30.21
2018-05-31T08:36:45.444Z,30.39
2018-05-31T08:37:45.375Z,30.67
2018-05-31T08:39:38.687Z,30.79
2018-05-31T08:40:38.635Z,30.81
2018-05-31T08:42:31.962Z,31.07
2018-05-31T08:43:31.889Z,31.38
2018-05-31T08:45:25.198Z,31.33
2018-05-31T08:46:25.155Z,31.01
2018-05-31T08:48:18.470Z,31.04
2018-05-31T08:49:18.403Z,30.67
2018-05-31T08:51:11.729Z,30.19
2018-05-31T08:52:11.662Z,30.48
2018-05-31T08:54:05.065Z,30.79
2018-05-31T08:55:04.917Z,30.78
2018-05-31T08:56:58.239Z,30.78
2018-05-31T08:57:58.172Z,31.01
2018-05-31T08:59:51.477Z,30.99
2018-05-31T09:00:51.436Z,31.04
2018-05-31T09:02:44.755Z,31.49
2018-05-31T09:03:44.686Z,31.44
2018-05-31T09:05:37.991Z,31.43
2018-05-31T09:06:37.945Z,31.12
2018-05-31T09:08:31.470Z,31.16
2018-05-31T09:09:31.486Z,31.21
2018-05-31T09:11:24.727Z,31.31
2018-05-31T09:12:24.661Z,31.12
2018-05-31T09:14:17.966Z,32.05
2018-05-31T09:15:17.921Z,32.43
2018-05-31T09:17:11.243Z,32.31
2018-05-31T09:18:11.177Z,32.47
2018-05-31T09:20:04.482Z,32.12
2018-05-31T09:21:04.436Z,32.31
2018-05-31T09:22:57.856Z,31.45
2018-05-31T09:23:57.715Z,31.74
2018-05-31T09:25:51.117Z,30.81
2018-05-31T09:26:50.974Z,30.67
2018-05-31T09:28:44.299Z,30.81
2018-05-31T09:29:44.233Z,30.66
2018-05-31T09:31:38.162Z,31.03
2018-05-31T09:32:37.493Z,31.37
2018-05-31T09:34:30.797Z,31.44
2018-05-31T09:35:30.751Z,31.70
2018-05-31T09:37:24.070Z,31.41
2018-05-31T09:38:24.000Z,31.33
2018-05-31T09:40:17.901Z,31.98
2018-05-31T09:41:17.409Z,32.03
2018-05-31T09:43:10.729Z,30.77
2018-05-31T09:44:10.663Z,31.16
2018-05-31T09:46:03.969Z,31.80
2018-05-31T09:47:03.923Z,31.44
2018-05-31T09:48:57.251Z,31.78
2018-05-31T09:49:57.187Z,32.01
2018-05-31T09:51:50.495Z,31.70
2018-05-31T09:52:50.447Z,31.97
2018-05-31T09:54:43.780Z,33.06
2018-05-31T09:55:43.708Z,32.76
2018-05-31T09:57:37.129Z,32.00
2018-05-31T09:58:36.974Z,32.25
2018-05-31T10:00:30.287Z,33.28
2018-05-31T10:01:30.234Z,32.94
2018-05-31T10:03:23.565Z,31.52
2018-05-31T10:04:23.497Z,31.75
2018-05-31T10:06:16.811Z,32.72
2018-05-31T10:07:16.758Z,32.90
2018-05-31T10:09:10.088Z,33.20
2018-05-31T10:10:10.021Z,33.09
2018-05-31T10:12:03.454Z,33.92
2018-05-31T10:13:03.410Z,34.10
2018-05-31T10:14:56.831Z,33.97
2018-05-31T10:15:56.675Z,34.03
2018-05-31T10:17:50.007Z,33.55
2018-05-31T10:18:49.942Z,33.78
2018-05-31T10:20:43.848Z,34.21
2018-05-31T10:21:43.406Z,34.34
2018-05-31T10:23:36.737Z,33.69
2018-05-31T10:24:36.677Z,32.64
2018-05-31T10:26:29.981Z,31.98
2018-05-31T10:27:29.938Z,32.01
2018-05-31T10:29:23.474Z,32.72
2018-05-31T10:30:23.408Z,32.91
2018-05-31T10:32:16.809Z,33.26
2018-05-31T10:33:16.673Z,33.52
2018-05-31T10:35:10.003Z,33.95
2018-05-31T10:36:09.935Z,34.24
2018-05-31T10:38:03.364Z,33.66
2018-05-31T10:39:03.196Z,33.46
2018-05-31T10:40:56.593Z,33.68
2018-05-31T10:41:56.454Z,33.73
2018-05-31T10:43:49.882Z,33.21
2018-05-31T10:44:49.729Z,32.20
2018-05-31T10:46:43.034Z,31.71
2018-05-31T10:47:42.988Z,32.01
2018-05-31T10:49:36.321Z,32.47
2018-05-31T10:50:36.252Z,32.62
2018-05-31T10:52:29.561Z,31.77
2018-05-31T10:53:29.515Z,32.00
2018-05-31T10:55:22.853Z,32.75
2018-05-31T10:56:22.786Z,33.24
2018-05-31T10:58:16.188Z,33.55
2018-05-31T10:59:16.092Z,32.71
2018-05-31T11:01:09.473Z,31.71
2018-05-31T11:02:09.432Z,31.12
2018-05-31T11:04:02.750Z,30.28
2018-05-31T11:05:02.670Z,29.98
2018-05-31T11:06:55.975Z,29.84
2018-05-31T11:07:55.928Z,29.85
2018-05-31T11:09:49.349Z,29.88
2018-05-31T11:10:49.185Z,29.79
2018-05-31T11:12:42.584Z,30.07
2018-05-31T11:13:42.440Z,30.45
2018-05-31T11:15:35.764Z,31.63
2018-05-31T11:16:35.696Z,31.97
2018-05-31T11:18:29.001Z,32.34
2018-05-31T11:19:28.954Z,31.95
2018-05-31T11:21:22.281Z,32.24
2018-05-31T11:22:22.214Z,32.01
2018-05-31T11:24:15.614Z,30.52
2018-05-31T11:25:15.475Z,30.32
2018-05-31T11:27:08.797Z,30.32
2018-05-31T11:28:08.729Z,30.32
2018-05-31T11:30:02.036Z,30.13
2018-05-31T11:31:01.989Z,30.06
2018-05-31T11:32:55.472Z,30.10
2018-05-31T11:33:55.401Z,30.29
2018-05-31T11:35:48.727Z,30.25
2018-05-31T11:36:48.658Z,30.32
2018-05-31T11:38:41.963Z,30.49
2018-05-31T11:39:41.913Z,30.45
2018-05-31T11:41:35.249Z,30.26
2018-05-31T11:42:35.173Z,30.13
2018-05-31T11:44:28.470Z,29.67
2018-05-31T11:45:28.422Z,29.52
2018-05-31T11:47:21.735Z,29.88
2018-05-31T11:48:21.667Z,30.02
2018-05-31T11:50:15.066Z,30.13
2018-05-31T11:51:14.921Z,30.19
2018-05-31T11:53:08.244Z,30.51
2018-05-31T11:54:08.176Z,30.54
2018-05-31T11:56:01.575Z,30.29
2018-05-31T11:57:01.430Z,30.21
2018-05-31T11:58:54.750Z,30.14
2018-05-31T11:59:54.728Z,30.03
2018-05-31T12:01:48.004Z,29.97
2018-05-31T12:02:47.934Z,30.04
2018-05-31T12:04:41.236Z,30.13
2018-05-31T12:05:41.189Z,30.11
2018-05-31T12:07:34.509Z,29.91
2018-05-31T12:08:34.442Z,29.91
2018-05-31T12:10:27.745Z,29.91
2018-05-31T12:11:27.697Z,29.85
2018-05-31T12:13:21.031Z,29.94
2018-05-31T12:14:20.960Z,29.91
2018-05-31T12:16:14.259Z,29.66
2018-05-31T12:17:14.209Z,29.61
2018-05-31T12:19:07.627Z,30.00
2018-05-31T12:20:07.462Z,30.02
2018-05-31T12:22:00.781Z,30.25
2018-05-31T12:23:00.713Z,30.44
2018-05-31T12:24:54.114Z,30.35
2018-05-31T12:25:53.965Z,30.26
2018-05-31T12:27:47.358Z,30.59
2018-05-31T12:28:47.289Z,30.64
2018-05-31T12:30:40.590Z,30.59
2018-05-31T12:31:40.541Z,30.29
2018-05-31T12:33:33.865Z,30.28
2018-05-31T12:34:33.795Z,30.22
2018-05-31T12:36:27.097Z,30.07
2018-05-31T12:37:27.047Z,30.09
2018-05-31T12:39:20.368Z,29.88
2018-05-31T12:40:20.300Z,29.95
2018-05-31T12:42:13.624Z,30.11
2018-05-31T12:43:13.594Z,30.16
2018-05-31T12:45:06.854Z,29.97
2018-05-31T12:46:06.809Z,29.89
2018-05-31T12:48:00.223Z,29.95
2018-05-31T12:49:00.047Z,29.81
2018-05-31T12:50:53.348Z,29.76
2018-05-31T12:51:53.308Z,29.88
2018-05-31T12:53:46.627Z,29.98
2018-05-31T12:54:46.551Z,30.00
2018-05-31T12:56:39.947Z,30.18
2018-05-31T12:57:39.800Z,30.11
2018-05-31T12:59:33.218Z,29.95
2018-05-31T13:00:33.050Z,29.97
2018-05-31T13:02:26.373Z,30.07
2018-05-31T13:03:26.301Z,30.22
2018-05-31T13:05:19.613Z,30.24
2018-05-31T13:06:19.563Z,30.34
2018-05-31T13:08:12.884Z,30.37
2018-05-31T13:09:12.817Z,30.26
2018-05-31T13:11:06.137Z,30.34
2018-05-31T13:12:06.087Z,30.35
2018-05-31T13:13:59.406Z,30.48
2018-05-31T13:14:59.338Z,30.54
2018-05-31T13:16:52.640Z,30.37
2018-05-31T13:17:52.591Z,30.34
2018-05-31T13:19:45.914Z,30.14
2018-05-31T13:20:45.845Z,30.04
2018-05-31T13:22:39.162Z,30.13
2018-05-31T13:23:39.093Z,30.16
2018-05-31T13:25:32.396Z,30.32
2018-05-31T13:26:32.345Z,30.11
2018-05-31T13:28:25.762Z,30.37
2018-05-31T13:29:25.621Z,30.19
2018-05-31T13:31:18.909Z,30.25
2018-05-31T13:32:18.855Z,30.16
2018-05-31T13:34:12.272Z,30.11
2018-05-31T13:35:12.106Z,30.11
2018-05-31T13:37:05.407Z,29.91
2018-05-31T13:38:05.365Z,29.94
2018-05-31T13:39:58.679Z,30.11
2018-05-31T13:40:58.611Z,30.03
2018-05-31T13:42:51.928Z,30.18
2018-05-31T13:43:51.859Z,30.13
2018-05-31T13:45:45.161Z,30.11
2018-05-31T13:46:45.111Z,30.21
2018-05-31T13:48:38.449Z,30.47
2018-05-31T13:49:38.368Z,30.48
2018-05-31T13:51:31.663Z,30.42
2018-05-31T13:52:31.617Z,30.54
2018-05-31T13:54:24.932Z,30.57
2018-05-31T13:55:24.866Z,30.69
2018-05-31T13:57:18.264Z,30.63
2018-05-31T13:58:18.120Z,30.44
2018-05-31T14:00:11.442Z,30.57
2018-05-31T14:01:11.374Z,30.57
2018-05-31T14:03:04.791Z,30.35
2018-05-31T14:04:04.637Z,30.48
2018-05-31T14:05:58.028Z,30.45
2018-05-31T14:06:57.881Z,30.59
2018-05-31T14:08:51.201Z,30.63
2018-05-31T14:09:51.133Z,30.62
2018-05-31T14:11:44.435Z,30.60
2018-05-31T14:12:44.384Z,30.51
2018-05-31T14:14:37.707Z,30.48
2018-05-31T14:15:37.636Z,30.44
2018-05-31T14:17:30.930Z,30.26
2018-05-31T14:18:30.883Z,30.31
2018-05-31T14:20:24.202Z,30.31
2018-05-31T14:21:24.132Z,30.44
2018-05-31T14:23:17.447Z,30.28
2018-05-31T14:24:17.387Z,30.11
2018-05-31T14:26:10.677Z,29.87
2018-05-31T14:27:10.627Z,30.00
2018-05-31T14:29:03.952Z,29.67
2018-05-31T14:30:03.878Z,29.55
2018-05-31T14:31:57.185Z,29.54
2018-05-31T14:32:57.135Z,29.57
2018-05-31T14:34:50.458Z,29.52
2018-05-31T14:35:50.390Z,29.54
2018-05-31T14:37:43.684Z,29.69
2018-05-31T14:38:43.640Z,29.72
2018-05-31T14:40:37.949Z,29.69
2018-05-31T14:41:37.881Z,29.77
2018-05-31T14:43:31.197Z,29.18
2018-05-31T14:44:31.129Z,28.86
2018-05-31T14:46:24.420Z,28.63
2018-05-31T14:47:24.367Z,28.35
2018-05-31T14:49:17.786Z,28.23
2018-05-31T14:50:17.618Z,28.03
2018-05-31T14:52:10.908Z,27.30
2018-05-31T14:53:10.857Z,27.13
2018-05-31T14:55:04.178Z,26.99
2018-05-31T14:56:04.111Z,26.84
2018-05-31T14:57:57.500Z,26.56
2018-05-31T14:58:57.343Z,26.31
2018-05-31T15:00:50.661Z,25.93
2018-05-31T15:01:50.590Z,26.03
2018-05-31T15:03:43.909Z,25.81
2018-05-31T15:04:43.834Z,25.82
2018-05-31T15:06:37.121Z,25.79
2018-05-31T15:07:37.067Z,25.37
2018-05-31T15:09:30.380Z,25.15
2018-05-31T15:10:30.311Z,25.20
2018-05-31T15:12:23.701Z,25.15
2018-05-31T15:13:23.548Z,25.01
2018-05-31T15:15:17.852Z,24.37
2018-05-31T15:16:17.778Z,24.19
2018-05-31T15:18:11.065Z,23.97
2018-05-31T15:19:11.007Z,23.87
2018-05-31T15:21:04.309Z,23.85
2018-05-31T15:22:04.235Z,23.78
2018-05-31T15:23:57.646Z,23.64
2018-05-31T15:24:57.471Z,23.72
2018-05-31T15:26:50.762Z,23.56
2018-05-31T15:27:50.704Z,23.42
2018-05-31T15:29:44.014Z,23.50
2018-05-31T15:30:43.939Z,23.52
2018-05-31T15:32:37.220Z,23.63
2018-05-31T15:33:37.164Z,23.64
2018-05-31T15:35:30.496Z,23.67
2018-05-31T15:36:30.413Z,23.60
2018-05-31T15:38:23.698Z,23.71
2018-05-31T15:39:23.643Z,23.62
2018-05-31T15:41:16.952Z,23.56
2018-05-31T15:42:16.877Z,23.50
2018-05-31T15:44:10.185Z,23.04
2018-05-31T15:45:10.110Z,22.81
2018-05-31T15:47:04.403Z,22.82
2018-05-31T15:48:04.344Z,22.73
2018-05-31T15:49:57.652Z,22.70
2018-05-31T15:50:57.576Z,22.84
2018-05-31T15:52:50.863Z,22.79
2018-05-31T15:53:50.808Z,22.82
2018-05-31T15:55:44.116Z,22.99
2018-05-31T15:56:44.040Z,22.92
2018-05-31T15:58:37.331Z,22.99
2018-05-31T15:59:37.273Z,22.92
2018-05-31T16:01:30.690Z,22.99
2018-05-31T16:02:30.506Z,22.97
2018-05-31T16:04:23.816Z,22.89
2018-05-31T16:05:23.738Z,22.97
2018-05-31T16:07:17.022Z,23.03
2018-05-31T16:08:16.966Z,22.92
2018-05-31T16:10:10.282Z,23.07
2018-05-31T16:11:10.205Z,23.09
2018-05-31T16:13:03.594Z,23.15
2018-05-31T16:14:03.442Z,23.22
2018-05-31T16:15:56.749Z,23.10
2018-05-31T16:16:56.670Z,23.18
2018-05-31T16:18:49.951Z,22.94
2018-05-31T16:19:49.895Z,22.96
2018-05-31T16:21:43.196Z,23.04
2018-05-31T16:22:43.122Z,23.14
2018-05-31T16:24:36.419Z,23.40
2018-05-31T16:25:36.346Z,23.52
2018-05-31T16:27:29.633Z,23.75
2018-05-31T16:28:29.610Z,23.74
2018-05-31T16:30:22.874Z,23.67
2018-05-31T16:31:22.797Z,23.75
2018-05-31T16:33:16.084Z,23.75
2018-05-31T16:34:16.029Z,23.84
2018-05-31T16:36:09.439Z,24.03
2018-05-31T16:37:09.283Z,24.22
2018-05-31T16:39:02.559Z,24.34
2018-05-31T16:40:02.507Z,24.26
2018-05-31T16:41:55.809Z,24.34
2018-05-31T16:42:55.739Z,24.49
2018-05-31T16:44:49.038Z,24.54
2018-05-31T16:45:48.964Z,24.52
2018-05-31T16:47:42.255Z,23.90
2018-05-31T16:48:42.194Z,23.67
2018-05-31T16:50:35.497Z,23.57
2018-05-31T16:51:35.424Z,23.44
2018-05-31T16:53:28.706Z,23.40
2018-05-31T16:54:28.655Z,23.55
2018-05-31T16:56:21.954Z,23.64
2018-05-31T16:57:21.881Z,23.57
2018-05-31T16:59:15.208Z,23.72
2018-05-31T17:00:15.108Z,23.75
2018-05-31T17:02:08.409Z,23.78
2018-05-31T17:03:08.334Z,23.79
2018-05-31T17:05:01.746Z,23.48
2018-05-31T17:06:01.563Z,23.60
2018-05-31T17:07:54.850Z,23.78
2018-05-31T17:08:54.808Z,23.81
2018-05-31T17:10:49.207Z,23.56
2018-05-31T17:11:49.024Z,23.57
2018-05-31T17:13:42.303Z,23.81
2018-05-31T17:14:42.249Z,23.90
2018-05-31T17:16:35.550Z,23.94
2018-05-31T17:17:35.478Z,23.92
2018-05-31T17:19:28.760Z,23.67
2018-05-31T17:20:28.704Z,23.67
2018-05-31T17:22:22.005Z,23.62
2018-05-31T17:23:21.931Z,23.63
2018-05-31T17:25:15.341Z,23.67
2018-05-31T17:26:15.163Z,23.60
2018-05-31T17:28:08.550Z,23.50
2018-05-31T17:29:08.387Z,23.53
2018-05-31T17:31:01.687Z,23.52
2018-05-31T17:32:01.612Z,23.24
2018-05-31T17:33:54.891Z,23.45
2018-05-31T17:34:54.839Z,23.45
2018-05-31T17:36:48.152Z,23.34
2018-05-31T17:37:48.065Z,23.29
2018-05-31T17:39:41.355Z,23.38
2018-05-31T17:40:41.300Z,23.24
2018-05-31T17:42:34.603Z,23.14
2018-05-31T17:43:34.529Z,23.14
2018-05-31T17:45:27.872Z,23.28
2018-05-31T17:46:27.754Z,23.35
2018-05-31T17:48:21.036Z,22.84
2018-05-31T17:49:21.013Z,22.69
2018-05-31T17:51:14.287Z,22.81
2018-05-31T17:52:14.217Z,22.79
2018-05-31T17:54:07.496Z,22.75
2018-05-31T17:55:07.439Z,22.84
2018-05-31T17:57:00.745Z,22.76
2018-05-31T17:58:00.666Z,22.84
2018-05-31T17:59:53.953Z,22.85
2018-05-31T18:00:53.891Z,22.89
2018-05-31T18:02:47.190Z,22.91
2018-05-31T18:03:47.114Z,22.99
2018-05-31T18:05:40.412Z,22.63
2018-05-31T18:06:40.337Z,22.48
2018-05-31T18:08:33.616Z,22.42
2018-05-31T18:09:33.560Z,22.39
2018-05-31T18:11:26.970Z,22.41
2018-05-31T18:12:26.790Z,22.36
2018-05-31T18:14:20.132Z,22.36
2018-05-31T18:15:20.012Z,22.48
2018-05-31T18:17:13.421Z,22.48
2018-05-31T18:18:13.282Z,22.46
2018-05-31T18:20:06.557Z,22.44
2018-05-31T18:21:06.499Z,22.44
2018-05-31T18:22:59.795Z,22.51
2018-05-31T18:23:59.721Z,22.51
2018-05-31T18:25:53.029Z,22.64
2018-05-31T18:26:52.952Z,22.51
2018-05-31T18:28:46.242Z,22.41
2018-05-31T18:29:46.184Z,22.42
2018-05-31T18:31:39.493Z,22.24
2018-05-31T18:32:39.416Z,22.18
2018-05-31T18:34:32.705Z,22.30
2018-05-31T18:35:32.649Z,22.26